createdAt,value
2022-12-18T00:00:22.339Z,88.77
2022-12-18T00:01:22.403Z,88.87
2022-12-18T00:02:22.341Z,88.98
2022-12-18T00:03:22.368Z,88.98
2022-12-18T00:04:22.521Z,88.98
2022-12-18T00:05:22.287Z,88.87
2022-12-18T00:06:22.267Z,88.77
2022-12-18T00:07:22.238Z,88.66
2022-12-18T00:08:22.237Z,88.56
2022-12-18T00:09:22.249Z,88.35
2022-12-18T00:10:22.234Z,88.35
2022-12-18T00:11:22.205Z,88.35
2022-12-18T00:12:22.205Z,88.35
2022-12-18T00:13:22.167Z,88.35
2022-12-18T00:14:22.156Z,88.35
2022-12-18T00:15:22.146Z,88.13
2022-12-18T00:16:22.244Z,88.13
2022-12-18T00:17:22.144Z,88.13
2022-12-18T00:18:22.145Z,88.24
2022-12-18T00:19:22.089Z,88.24
2022-12-18T00:20:22.093Z,88.35
2022-12-18T00:21:22.095Z,88.56
2022-12-18T00:22:22.122Z,88.66
2022-12-18T00:23:22.061Z,88.77
2022-12-18T00:24:22.033Z,88.66
2022-12-18T00:25:22.041Z,88.56
2022-12-18T00:26:22.037Z,88.66
2022-12-18T00:27:22.021Z,88.66
2022-12-18T00:28:22.000Z,88.66
2022-12-18T00:29:21.977Z,88.66
2022-12-18T00:30:22.008Z,88.66
2022-12-18T00:31:22.065Z,88.56
2022-12-18T00:32:21.940Z,88.56
2022-12-18T00:33:21.954Z,88.45
2022-12-18T00:34:21.950Z,88.45
2022-12-18T00:35:21.895Z,88.56
2022-12-18T00:36:21.917Z,88.56
2022-12-18T00:37:21.894Z,88.45
2022-12-18T00:38:21.871Z,88.45
2022-12-18T00:39:21.880Z,88.45
2022-12-18T00:40:21.867Z,88.45
2022-12-18T00:41:21.845Z,88.45
2022-12-18T00:42:21.846Z,88.56
2022-12-18T00:43:21.814Z,88.56
2022-12-18T00:44:21.834Z,88.70
2022-12-18T00:45:21.797Z,88.70
2022-12-18T00:46:21.793Z,88.70
2022-12-18T00:47:21.776Z,88.81
2022-12-18T00:48:21.763Z,88.92
2022-12-18T00:49:21.715Z,88.98
2022-12-18T00:50:21.752Z,89.02
2022-12-18T00:51:21.706Z,88.98
2022-12-18T00:52:21.725Z,88.98
2022-12-18T00:53:21.669Z,88.98
2022-12-18T00:54:21.690Z,88.98
2022-12-18T00:55:21.661Z,88.87
2022-12-18T00:56:21.667Z,88.87
2022-12-18T00:57:21.650Z,88.98
2022-12-18T00:58:21.647Z,88.98
2022-12-18T00:59:21.623Z,89.09
2022-12-18T01:00:21.593Z,89.09
2022-12-18T01:01:21.721Z,89.09
2022-12-18T01:02:21.689Z,89.09
2022-12-18T01:03:21.581Z,89.09
2022-12-18T01:04:21.600Z,89.19
2022-12-18T01:05:21.554Z,89.19
2022-12-18T01:06:21.540Z,89.19
2022-12-18T01:07:21.492Z,89.19
2022-12-18T01:08:21.500Z,89.19
2022-12-18T01:09:21.497Z,89.19
2022-12-18T01:10:21.471Z,89.29
2022-12-18T01:11:21.474Z,89.34
2022-12-18T01:12:21.472Z,89.34
2022-12-18T01:13:21.508Z,89.34
2022-12-18T01:14:21.434Z,89.34
2022-12-18T01:15:21.462Z,89.44
2022-12-18T01:16:21.457Z,89.44
2022-12-18T01:17:21.434Z,89.54
2022-12-18T01:18:21.367Z,89.54
2022-12-18T01:19:21.372Z,89.65
2022-12-18T01:20:21.337Z,89.76
2022-12-18T01:21:21.374Z,89.76
2022-12-18T01:22:21.338Z,89.86
2022-12-18T01:23:21.316Z,89.97
2022-12-18T01:24:21.304Z,90.08
2022-12-18T01:25:21.311Z,90.18
2022-12-18T01:26:21.288Z,90.28
2022-12-18T01:27:21.291Z,90.39
2022-12-18T01:28:21.253Z,90.50
2022-12-18T01:29:21.260Z,90.50
2022-12-18T01:30:21.212Z,90.50
2022-12-18T01:31:21.351Z,90.50
2022-12-18T01:32:21.210Z,90.39
2022-12-18T01:33:21.251Z,90.50
2022-12-18T01:34:21.189Z,90.39
2022-12-18T01:35:21.199Z,90.39
2022-12-18T01:36:21.142Z,90.28
2022-12-18T01:37:21.143Z,90.28
2022-12-18T01:38:21.141Z,90.08
2022-12-18T01:39:21.155Z,89.97
2022-12-18T01:40:21.104Z,89.76
2022-12-18T01:41:21.125Z,89.54
2022-12-18T01:42:21.100Z,89.44
2022-12-18T01:43:21.100Z,89.34
2022-12-18T01:44:21.086Z,89.34
2022-12-18T01:45:21.073Z,89.34
2022-12-18T01:46:21.096Z,89.23
2022-12-18T01:47:21.018Z,89.23
2022-12-18T01:48:21.014Z,89.23
2022-12-18T01:49:21.025Z,89.23
2022-12-18T01:50:21.021Z,89.23
2022-12-18T01:51:20.965Z,89.12
2022-12-18T01:52:20.947Z,89.12
2022-12-18T01:53:20.974Z,89.23
2022-12-18T01:54:20.955Z,89.23
2022-12-18T01:55:20.993Z,89.23
2022-12-18T01:56:20.931Z,89.23
2022-12-18T01:57:20.898Z,89.34
2022-12-18T01:58:20.901Z,89.34
2022-12-18T01:59:20.904Z,89.44
2022-12-18T02:00:20.863Z,89.44
2022-12-18T02:01:21.011Z,89.44
2022-12-18T02:02:20.986Z,89.44
2022-12-18T02:03:20.868Z,89.44
2022-12-18T02:04:20.821Z,89.34
2022-12-18T02:05:20.819Z,89.34
2022-12-18T02:06:20.798Z,89.34
2022-12-18T02:07:20.774Z,89.34
2022-12-18T02:08:20.753Z,89.44
2022-12-18T02:09:20.759Z,89.54
2022-12-18T02:10:20.722Z,89.65
2022-12-18T02:11:20.739Z,89.76
2022-12-18T02:12:20.713Z,89.76
2022-12-18T02:13:20.725Z,89.86
2022-12-18T02:14:20.713Z,89.86
2022-12-18T02:15:20.692Z,89.86
2022-12-18T02:16:20.782Z,89.86
2022-12-18T02:17:20.679Z,89.97
2022-12-18T02:18:20.629Z,89.86
2022-12-18T02:19:20.637Z,89.76
2022-12-18T02:20:20.609Z,89.65
2022-12-18T02:21:20.596Z,89.44
2022-12-18T02:22:20.586Z,89.19
2022-12-18T02:23:20.587Z,88.98
2022-12-18T02:24:20.547Z,88.77
2022-12-18T02:25:20.554Z,88.66
2022-12-18T02:26:20.562Z,88.56
2022-12-18T02:27:20.577Z,88.56
2022-12-18T02:28:20.531Z,88.45
2022-12-18T02:29:20.542Z,88.45
2022-12-18T02:30:20.512Z,88.35
2022-12-18T02:31:20.493Z,88.24
2022-12-18T02:32:20.471Z,88.13
2022-12-18T02:33:20.480Z,88.13
2022-12-18T02:34:20.460Z,88.13
2022-12-18T02:35:20.459Z,88.03
2022-12-18T02:36:20.430Z,87.93
2022-12-18T02:37:20.412Z,87.93
2022-12-18T02:38:20.427Z,87.93
2022-12-18T02:39:20.372Z,87.93
2022-12-18T02:40:20.350Z,87.93
2022-12-18T02:41:20.390Z,87.93
2022-12-18T02:42:20.343Z,87.93
2022-12-18T02:43:20.356Z,87.93
2022-12-18T02:44:20.310Z,87.82
2022-12-18T02:45:20.306Z,87.93
2022-12-18T02:46:20.328Z,87.93
2022-12-18T02:47:20.318Z,87.93
2022-12-18T02:48:20.285Z,87.93
2022-12-18T02:49:20.259Z,88.03
2022-12-18T02:50:20.231Z,88.03
2022-12-18T02:51:20.265Z,88.13
2022-12-18T02:52:20.233Z,88.28
2022-12-18T02:53:20.243Z,88.39
2022-12-18T02:54:20.189Z,88.45
2022-12-18T02:55:20.186Z,88.45
2022-12-18T02:56:20.155Z,88.45
2022-12-18T02:57:20.192Z,88.45
2022-12-18T02:58:20.174Z,88.35
2022-12-18T02:59:20.161Z,88.35
2022-12-18T03:00:20.141Z,88.35
2022-12-18T03:01:20.218Z,88.45
2022-12-18T03:02:20.392Z,88.45
2022-12-18T03:03:20.232Z,88.45
2022-12-18T03:04:20.092Z,88.56
2022-12-18T03:05:20.110Z,88.66
2022-12-18T03:06:20.032Z,88.77
2022-12-18T03:07:20.068Z,88.77
2022-12-18T03:08:20.014Z,88.66
2022-12-18T03:09:20.062Z,88.66
2022-12-18T03:10:19.993Z,88.56
2022-12-18T03:11:20.017Z,88.56
2022-12-18T03:12:19.997Z,88.56
2022-12-18T03:13:19.970Z,88.66
2022-12-18T03:14:19.954Z,88.66
2022-12-18T03:15:19.988Z,88.77
2022-12-18T03:16:19.975Z,88.77
2022-12-18T03:17:19.918Z,88.77
2022-12-18T03:18:19.905Z,88.77
2022-12-18T03:19:19.930Z,88.66
2022-12-18T03:20:19.905Z,88.77
2022-12-18T03:21:19.909Z,88.77
2022-12-18T03:22:19.873Z,88.77
2022-12-18T03:23:22.336Z,88.87
2022-12-18T03:24:20.855Z,88.87
2022-12-18T03:25:19.850Z,88.87
2022-12-18T03:26:19.823Z,88.98
2022-12-18T03:27:19.786Z,88.98
2022-12-18T03:28:19.796Z,88.98
2022-12-18T03:29:19.814Z,88.87
2022-12-18T03:30:19.772Z,88.98
2022-12-18T03:31:19.802Z,89.09
2022-12-18T03:32:19.759Z,89.09
2022-12-18T03:33:19.758Z,89.09
2022-12-18T03:34:19.714Z,89.09
2022-12-18T03:35:19.740Z,89.09
2022-12-18T03:36:19.701Z,89.09
2022-12-18T03:37:19.673Z,89.09
2022-12-18T03:38:19.650Z,89.09
2022-12-18T03:39:19.642Z,89.23
2022-12-18T03:40:19.669Z,89.19
2022-12-18T03:41:19.623Z,89.29
2022-12-18T03:42:19.602Z,89.19
2022-12-18T03:43:19.591Z,89.19
2022-12-18T03:44:19.608Z,89.09
2022-12-18T03:45:19.609Z,89.09
2022-12-18T03:46:19.589Z,89.09
2022-12-18T03:47:19.563Z,89.09
2022-12-18T03:48:19.557Z,89.09
2022-12-18T03:49:19.521Z,89.09
2022-12-18T03:50:19.520Z,89.09
2022-12-18T03:51:19.501Z,89.12
2022-12-18T03:52:19.506Z,89.12
2022-12-18T03:53:19.480Z,89.12
2022-12-18T03:54:19.460Z,89.12
2022-12-18T03:55:19.449Z,89.23
2022-12-18T03:56:19.439Z,89.34
2022-12-18T03:57:19.426Z,89.54
2022-12-18T03:58:19.446Z,89.54
2022-12-18T03:59:19.435Z,89.51
2022-12-18T04:00:19.386Z,89.51
2022-12-18T04:01:19.512Z,89.51
2022-12-18T04:02:19.533Z,89.51
2022-12-18T04:03:22.682Z,89.54
2022-12-18T04:04:20.363Z,89.51
2022-12-18T04:05:19.358Z,89.51
2022-12-18T04:06:19.309Z,89.61
2022-12-18T04:07:19.310Z,89.61
2022-12-18T04:08:19.311Z,89.61
2022-12-18T04:09:19.310Z,89.51
2022-12-18T04:10:19.257Z,89.61
2022-12-18T04:11:19.272Z,89.61
2022-12-18T04:12:19.236Z,89.51
2022-12-18T04:13:19.231Z,89.40
2022-12-18T04:14:19.233Z,89.40
2022-12-18T04:15:19.211Z,89.34
2022-12-18T04:16:19.299Z,89.40
2022-12-18T04:17:19.208Z,89.29
2022-12-18T04:18:19.184Z,89.34
2022-12-18T04:19:19.164Z,89.23
2022-12-18T04:20:19.135Z,89.23
2022-12-18T04:21:19.156Z,89.12
2022-12-18T04:22:19.135Z,89.12
2022-12-18T04:23:19.138Z,89.02
2022-12-18T04:24:19.090Z,89.02
2022-12-18T04:25:19.104Z,88.92
2022-12-18T04:26:19.069Z,88.81
2022-12-18T04:27:19.078Z,88.81
2022-12-18T04:28:19.055Z,88.81
2022-12-18T04:29:19.080Z,88.81
2022-12-18T04:30:19.016Z,88.81
2022-12-18T04:31:19.093Z,88.70
2022-12-18T04:32:19.033Z,88.81
2022-12-18T04:33:19.002Z,88.92
2022-12-18T04:34:18.997Z,89.02
2022-12-18T04:35:18.965Z,88.92
2022-12-18T04:36:18.935Z,88.92
2022-12-18T04:37:18.972Z,88.81
2022-12-18T04:38:18.921Z,88.81
2022-12-18T04:39:18.917Z,88.81
2022-12-18T04:40:18.895Z,88.92
2022-12-18T04:41:18.884Z,88.92
2022-12-18T04:42:18.876Z,88.92
2022-12-18T04:43:18.938Z,89.02
2022-12-18T04:44:18.843Z,89.12
2022-12-18T04:45:18.877Z,89.12
2022-12-18T04:46:18.834Z,89.12
2022-12-18T04:47:18.832Z,89.02
2022-12-18T04:48:18.826Z,89.02
2022-12-18T04:49:18.819Z,89.02
2022-12-18T04:50:18.772Z,89.02
2022-12-18T04:51:23.323Z,89.12
2022-12-18T04:52:19.749Z,89.12
2022-12-18T04:53:18.773Z,89.12
2022-12-18T04:54:18.746Z,89.23
2022-12-18T04:55:18.738Z,89.23
2022-12-18T04:56:18.726Z,89.23
2022-12-18T04:57:18.738Z,89.12
2022-12-18T04:58:18.679Z,89.12
2022-12-18T04:59:18.686Z,89.12
2022-12-18T05:00:18.687Z,89.06
2022-12-18T05:01:18.837Z,89.17
2022-12-18T05:02:18.794Z,89.27
2022-12-18T05:03:18.667Z,89.37
2022-12-18T05:04:18.624Z,89.37
2022-12-18T05:05:18.633Z,89.37
2022-12-18T05:06:18.590Z,89.37
2022-12-18T05:07:18.565Z,89.37
2022-12-18T05:08:18.574Z,89.37
2022-12-18T05:09:18.538Z,89.48
2022-12-18T05:10:18.552Z,89.48
2022-12-18T05:11:18.553Z,89.48
2022-12-18T05:12:18.502Z,89.59
2022-12-18T05:13:18.523Z,89.59
2022-12-18T05:14:18.499Z,89.59
2022-12-18T05:15:18.500Z,89.59
2022-12-18T05:16:18.587Z,89.59
2022-12-18T05:17:18.485Z,89.59
2022-12-18T05:18:18.432Z,89.59
2022-12-18T05:19:18.417Z,89.59
2022-12-18T05:20:18.432Z,89.48
2022-12-18T05:21:18.432Z,89.48
2022-12-18T05:22:18.407Z,89.59
2022-12-18T05:23:18.418Z,89.59
2022-12-18T05:24:18.378Z,89.59
2022-12-18T05:25:18.352Z,89.59
2022-12-18T05:26:18.347Z,89.59
2022-12-18T05:27:18.310Z,89.59
2022-12-18T05:28:18.345Z,89.59
2022-12-18T05:29:18.299Z,89.59
2022-12-18T05:30:18.312Z,89.59
2022-12-18T05:31:18.304Z,89.59
2022-12-18T05:32:18.281Z,89.37
2022-12-18T05:33:18.256Z,89.37
2022-12-18T05:34:18.238Z,89.27
2022-12-18T05:35:18.247Z,89.27
2022-12-18T05:36:18.243Z,89.27
2022-12-18T05:37:18.223Z,89.27
2022-12-18T05:38:18.215Z,89.27
2022-12-18T05:39:18.176Z,89.37
2022-12-18T05:40:18.168Z,89.37
2022-12-18T05:41:18.141Z,89.37
2022-12-18T05:42:18.180Z,89.37
2022-12-18T05:43:21.323Z,89.37
2022-12-18T05:44:18.125Z,89.37
2022-12-18T05:45:18.085Z,89.37
2022-12-18T05:46:18.143Z,89.37
2022-12-18T05:47:18.089Z,89.37
2022-12-18T05:48:18.093Z,89.37
2022-12-18T05:49:18.061Z,89.37
2022-12-18T05:50:18.052Z,89.48
2022-12-18T05:51:18.011Z,89.59
2022-12-18T05:52:18.013Z,89.59
2022-12-18T05:53:18.001Z,89.69
2022-12-18T05:54:18.041Z,89.79
2022-12-18T05:55:17.971Z,89.90
2022-12-18T05:56:17.980Z,90.01
2022-12-18T05:57:17.969Z,90.01
2022-12-18T05:58:17.939Z,89.90
2022-12-18T05:59:25.533Z,89.90
2022-12-18T06:00:17.942Z,89.90
2022-12-18T06:01:17.934Z,89.79
2022-12-18T06:02:18.068Z,89.79
2022-12-18T06:03:18.042Z,89.69
2022-12-18T06:04:17.913Z,89.59
2022-12-18T06:05:17.872Z,89.59
2022-12-18T06:06:17.876Z,89.48
2022-12-18T06:07:17.850Z,89.48
2022-12-18T06:08:17.821Z,89.48
2022-12-18T06:09:17.840Z,89.59
2022-12-18T06:10:17.793Z,89.59
2022-12-18T06:11:17.818Z,89.48
2022-12-18T06:12:17.797Z,89.37
2022-12-18T06:13:17.772Z,89.37
2022-12-18T06:14:17.760Z,89.27
2022-12-18T06:15:17.722Z,89.27
2022-12-18T06:16:17.780Z,89.27
2022-12-18T06:17:17.698Z,89.27
2022-12-18T06:18:17.723Z,89.27
2022-12-18T06:19:17.688Z,89.27
2022-12-18T06:20:17.669Z,89.27
2022-12-18T06:21:17.653Z,89.17
2022-12-18T06:22:17.684Z,89.27
2022-12-18T06:23:17.646Z,89.17
2022-12-18T06:24:17.665Z,89.06
2022-12-18T06:25:17.626Z,89.06
2022-12-18T06:26:17.665Z,89.06
2022-12-18T06:27:17.601Z,89.06
2022-12-18T06:28:17.593Z,88.95
2022-12-18T06:29:17.590Z,88.95
2022-12-18T06:30:17.596Z,88.85
2022-12-18T06:31:17.587Z,88.85
2022-12-18T06:32:17.552Z,88.85
2022-12-18T06:33:17.505Z,88.85
2022-12-18T06:34:17.505Z,88.95
2022-12-18T06:35:17.514Z,88.95
2022-12-18T06:36:17.487Z,88.95
2022-12-18T06:37:17.470Z,88.95
2022-12-18T06:38:17.479Z,88.95
2022-12-18T06:39:17.424Z,88.95
2022-12-18T06:40:17.452Z,88.95
2022-12-18T06:41:17.429Z,88.95
2022-12-18T06:42:17.428Z,89.06
2022-12-18T06:43:17.406Z,89.06
2022-12-18T06:44:17.388Z,89.06
2022-12-18T06:45:17.379Z,89.06
2022-12-18T06:46:17.513Z,88.95
2022-12-18T06:47:17.328Z,88.95
2022-12-18T06:48:17.355Z,89.06
2022-12-18T06:49:17.324Z,89.17
2022-12-18T06:50:17.380Z,89.17
2022-12-18T06:51:17.291Z,89.27
2022-12-18T06:52:17.305Z,89.37
2022-12-18T06:53:17.285Z,89.37
2022-12-18T06:54:17.285Z,89.37
2022-12-18T06:55:17.265Z,89.37
2022-12-18T06:56:17.247Z,89.48
2022-12-18T06:57:17.244Z,89.48
2022-12-18T06:58:17.230Z,89.48
2022-12-18T06:59:17.187Z,89.48
2022-12-18T07:00:17.190Z,89.52
2022-12-18T07:01:17.299Z,89.63
2022-12-18T07:02:17.312Z,89.63
2022-12-18T07:03:17.136Z,89.73
2022-12-18T07:04:17.144Z,89.73
2022-12-18T07:05:17.124Z,89.73
2022-12-18T07:06:17.186Z,89.84
2022-12-18T07:07:17.110Z,89.73
2022-12-18T07:08:17.141Z,89.73
2022-12-18T07:09:17.124Z,89.63
2022-12-18T07:10:17.062Z,89.59
2022-12-18T07:11:17.085Z,89.59
2022-12-18T07:12:17.099Z,89.59
2022-12-18T07:13:17.022Z,89.63
2022-12-18T07:14:17.038Z,89.63
2022-12-18T07:15:17.011Z,89.52
2022-12-18T07:16:22.609Z,89.52
2022-12-18T07:17:18.027Z,89.52
2022-12-18T07:18:16.999Z,89.52
2022-12-18T07:19:16.961Z,89.63
2022-12-18T07:20:16.957Z,89.63
2022-12-18T07:21:16.949Z,89.63
2022-12-18T07:22:16.956Z,89.73
2022-12-18T07:23:16.917Z,89.69
2022-12-18T07:24:16.919Z,89.69
2022-12-18T07:25:16.904Z,89.69
2022-12-18T07:26:16.893Z,89.69
2022-12-18T07:27:16.869Z,89.69
2022-12-18T07:28:17.647Z,89.79
2022-12-18T07:29:16.834Z,89.79
2022-12-18T07:30:16.835Z,89.69
2022-12-18T07:31:16.849Z,89.69
2022-12-18T07:32:16.821Z,89.59
2022-12-18T07:33:16.787Z,89.59
2022-12-18T07:34:16.794Z,89.59
2022-12-18T07:35:20.780Z,89.69
2022-12-18T07:36:17.808Z,89.59
2022-12-18T07:37:16.746Z,89.59
2022-12-18T07:38:16.779Z,89.48
2022-12-18T07:39:16.720Z,89.48
2022-12-18T07:40:16.721Z,89.37
2022-12-18T07:41:16.664Z,89.37
2022-12-18T07:42:16.700Z,89.37
2022-12-18T07:43:16.670Z,89.48
2022-12-18T07:44:16.712Z,89.48
2022-12-18T07:45:16.670Z,89.48
2022-12-18T07:46:16.797Z,89.44
2022-12-18T07:47:16.656Z,89.48
2022-12-18T07:48:16.629Z,89.44
2022-12-18T07:49:16.605Z,89.59
2022-12-18T07:50:16.573Z,89.44
2022-12-18T07:51:16.595Z,89.44
2022-12-18T07:52:19.312Z,89.44
2022-12-18T07:53:17.540Z,89.44
2022-12-18T07:54:16.568Z,89.44
2022-12-18T07:55:16.573Z,89.34
2022-12-18T07:56:31.892Z,89.44
2022-12-18T07:57:48.494Z,89.44
2022-12-18T07:58:17.480Z,89.44
2022-12-18T07:59:16.439Z,89.44
2022-12-18T08:00:16.512Z,89.34
2022-12-18T08:01:16.594Z,89.23
2022-12-18T08:02:16.647Z,89.12
2022-12-18T08:03:16.429Z,89.02
2022-12-18T08:04:16.402Z,89.12
2022-12-18T08:05:16.657Z,89.12
2022-12-18T08:06:16.402Z,89.12
2022-12-18T08:07:17.321Z,89.12
2022-12-18T08:08:16.413Z,89.02
2022-12-18T08:09:16.382Z,89.02
2022-12-18T08:10:16.343Z,89.12
2022-12-18T08:11:16.325Z,89.12
2022-12-18T08:12:16.331Z,89.12
2022-12-18T08:13:16.333Z,89.12
2022-12-18T08:14:16.274Z,89.23
2022-12-18T08:15:16.291Z,89.23
2022-12-18T08:16:16.294Z,89.23
2022-12-18T08:17:16.292Z,89.34
2022-12-18T08:18:16.223Z,89.23
2022-12-18T08:19:16.239Z,89.19
2022-12-18T08:20:16.212Z,89.19
2022-12-18T08:21:16.190Z,89.09
2022-12-18T08:22:16.288Z,88.98
2022-12-18T08:23:17.200Z,88.98
2022-12-18T08:24:16.187Z,88.98
2022-12-18T08:25:16.157Z,88.98
2022-12-18T08:26:16.176Z,89.09
2022-12-18T08:27:31.475Z,89.09
2022-12-18T08:28:17.145Z,89.09
2022-12-18T08:29:21.242Z,89.09
2022-12-18T08:30:17.106Z,89.09
2022-12-18T08:31:16.124Z,89.09
2022-12-18T08:32:16.107Z,88.98
2022-12-18T08:33:16.027Z,88.73
2022-12-18T08:34:16.103Z,88.73
2022-12-18T08:35:18.725Z,88.73
2022-12-18T08:36:16.120Z,88.73
2022-12-18T08:37:16.052Z,88.73
2022-12-18T08:38:16.021Z,88.73
2022-12-18T08:39:16.014Z,88.83
2022-12-18T08:40:15.954Z,88.83
2022-12-18T08:41:15.948Z,88.83
2022-12-18T08:42:15.982Z,88.83
2022-12-18T08:43:15.934Z,88.83
2022-12-18T08:44:15.906Z,88.73
2022-12-18T08:45:15.945Z,88.58
2022-12-18T08:46:15.923Z,88.37
2022-12-18T08:47:16.650Z,88.27
2022-12-18T08:48:21.877Z,88.06
2022-12-18T08:49:16.843Z,87.95
2022-12-18T08:50:16.548Z,87.85
2022-12-18T08:51:15.803Z,87.63
2022-12-18T08:52:15.852Z,87.63
2022-12-18T08:53:15.820Z,87.63
2022-12-18T08:54:15.801Z,87.53
2022-12-18T08:55:15.760Z,87.53
2022-12-18T08:56:15.794Z,87.53
2022-12-18T08:57:15.770Z,87.42
2022-12-18T08:58:15.758Z,87.32
2022-12-18T08:59:19.331Z,87.32
2022-12-18T09:00:15.714Z,87.28
2022-12-18T09:01:15.860Z,87.18
2022-12-18T09:02:16.037Z,87.07
2022-12-18T09:03:15.725Z,86.96
2022-12-18T09:04:15.668Z,86.86
2022-12-18T09:05:15.684Z,86.86
2022-12-18T09:06:15.643Z,86.86
2022-12-18T09:07:15.645Z,86.76
2022-12-18T09:08:15.618Z,86.76
2022-12-18T09:09:15.634Z,86.65
2022-12-18T09:10:15.636Z,86.61
2022-12-18T09:11:15.595Z,86.51
2022-12-18T09:12:15.620Z,86.51
2022-12-18T09:13:15.651Z,86.51
2022-12-18T09:14:15.564Z,86.29
2022-12-18T09:15:15.635Z,86.19
2022-12-18T09:16:15.665Z,86.08
2022-12-18T09:17:15.618Z,86.19
2022-12-18T09:18:15.522Z,86.29
2022-12-18T09:19:15.493Z,86.29
2022-12-18T09:20:15.504Z,86.40
2022-12-18T09:21:15.469Z,86.29
2022-12-18T09:22:15.498Z,86.29
2022-12-18T09:23:15.505Z,86.29
2022-12-18T09:24:15.422Z,86.40
2022-12-18T09:25:15.435Z,86.51
2022-12-18T09:26:15.434Z,86.71
2022-12-18T09:27:15.362Z,86.71
2022-12-18T09:28:15.380Z,86.51
2022-12-18T09:29:15.369Z,86.25
2022-12-18T09:30:15.386Z,86.15
2022-12-18T09:31:15.481Z,86.15
2022-12-18T09:32:22.054Z,86.15
2022-12-18T09:33:16.359Z,86.25
2022-12-18T09:34:15.323Z,86.25
2022-12-18T09:35:15.295Z,86.25
2022-12-18T09:36:15.308Z,86.15
2022-12-18T09:37:15.275Z,86.04
2022-12-18T09:38:16.218Z,85.94
2022-12-18T09:39:15.227Z,85.94
2022-12-18T09:40:15.304Z,85.90
2022-12-18T09:41:15.244Z,85.90
2022-12-18T09:42:15.208Z,85.90
2022-12-18T09:43:15.176Z,85.90
2022-12-18T09:44:15.232Z,85.90
2022-12-18T09:45:15.241Z,85.90
2022-12-18T09:46:15.156Z,85.79
2022-12-18T09:47:15.420Z,85.69
2022-12-18T09:48:15.175Z,85.37
2022-12-18T09:49:15.141Z,85.27
2022-12-18T09:50:17.394Z,85.16
2022-12-18T09:51:15.107Z,85.16
2022-12-18T09:52:15.140Z,85.02
2022-12-18T09:53:15.074Z,84.91
2022-12-18T09:54:15.069Z,84.81
2022-12-18T09:55:15.042Z,84.60
2022-12-18T09:56:15.040Z,84.49
2022-12-18T09:57:15.042Z,84.39
2022-12-18T09:58:15.021Z,84.18
2022-12-18T09:59:15.068Z,83.97
2022-12-18T10:00:14.964Z,83.97
2022-12-18T10:01:15.219Z,83.97
2022-12-18T10:02:15.065Z,83.97
2022-12-18T10:03:15.061Z,83.86
2022-12-18T10:04:14.956Z,83.72
2022-12-18T10:05:14.917Z,83.61
2022-12-18T10:06:15.866Z,83.40
2022-12-18T10:07:14.915Z,83.09
2022-12-18T10:08:14.984Z,82.67
2022-12-18T10:09:14.969Z,82.25
2022-12-18T10:10:14.873Z,82.35
2022-12-18T10:11:14.874Z,82.46
2022-12-18T10:12:14.819Z,82.25
2022-12-18T10:13:14.837Z,82.04
2022-12-18T10:14:14.794Z,81.90
2022-12-18T10:15:14.796Z,82.10
2022-12-18T10:16:14.854Z,82.32
2022-12-18T10:17:14.804Z,82.10
2022-12-18T10:18:21.578Z,82.00
2022-12-18T10:19:16.722Z,81.90
2022-12-18T10:20:14.741Z,81.69
2022-12-18T10:21:14.738Z,81.58
2022-12-18T10:22:14.844Z,81.37
2022-12-18T10:23:14.740Z,81.05
2022-12-18T10:24:14.756Z,81.05
2022-12-18T10:25:14.696Z,81.02
2022-12-18T10:26:14.680Z,81.02
2022-12-18T10:27:14.672Z,80.91
2022-12-18T10:28:14.668Z,80.91
2022-12-18T10:29:14.648Z,81.02
2022-12-18T10:30:14.594Z,80.60
2022-12-18T10:31:14.656Z,80.60
2022-12-18T10:32:14.607Z,80.49
2022-12-18T10:33:14.647Z,80.29
2022-12-18T10:34:14.568Z,80.39
2022-12-18T10:35:14.599Z,80.49
2022-12-18T10:36:14.555Z,80.67
2022-12-18T10:37:14.553Z,80.57
2022-12-18T10:38:14.508Z,80.46
2022-12-18T10:39:14.523Z,80.46
2022-12-18T10:40:21.529Z,80.46
2022-12-18T10:41:15.469Z,80.46
2022-12-18T10:42:14.501Z,80.46
2022-12-18T10:43:14.504Z,80.67
2022-12-18T10:44:14.457Z,80.57
2022-12-18T10:45:14.480Z,80.35
2022-12-18T10:46:14.462Z,80.46
2022-12-18T10:47:14.456Z,80.04
2022-12-18T10:48:14.751Z,79.93
2022-12-18T10:49:14.443Z,80.15
2022-12-18T10:50:14.346Z,80.25
2022-12-18T10:51:14.364Z,80.00
2022-12-18T10:52:14.334Z,80.11
2022-12-18T10:53:14.363Z,80.21
2022-12-18T10:54:14.298Z,80.00
2022-12-18T10:55:14.329Z,79.69
2022-12-18T10:56:14.304Z,79.79
2022-12-18T10:57:14.369Z,79.58
2022-12-18T10:58:14.262Z,79.58
2022-12-18T10:59:14.251Z,79.79
2022-12-18T11:00:14.261Z,79.79
2022-12-18T11:01:14.355Z,79.79
2022-12-18T11:02:14.289Z,80.11
2022-12-18T11:03:14.532Z,80.00
2022-12-18T11:04:14.180Z,80.00
2022-12-18T11:05:14.190Z,80.32
2022-12-18T11:06:14.154Z,79.79
2022-12-18T11:07:14.177Z,79.79
2022-12-18T11:08:14.207Z,79.79
2022-12-18T11:09:15.615Z,79.48
2022-12-18T11:10:14.850Z,79.44
2022-12-18T11:11:14.109Z,79.38
2022-12-18T11:12:14.109Z,78.81
2022-12-18T11:13:14.127Z,78.81
2022-12-18T11:14:14.062Z,78.92
2022-12-18T11:15:14.118Z,79.23
2022-12-18T11:16:14.103Z,79.13
2022-12-18T11:17:30.230Z,78.71
2022-12-18T11:18:15.046Z,78.60
2022-12-18T11:19:14.119Z,78.29
2022-12-18T11:20:14.014Z,78.39
2022-12-18T11:21:14.062Z,78.71
2022-12-18T11:22:14.005Z,78.92
2022-12-18T11:23:14.934Z,78.92
2022-12-18T11:24:13.951Z,79.02
2022-12-18T11:26:14.904Z,78.92
2022-12-18T11:27:13.905Z,78.92
2022-12-18T11:28:13.905Z,78.81
2022-12-18T11:29:13.884Z,78.39
2022-12-18T11:30:13.870Z,78.39
2022-12-18T11:31:13.921Z,78.50
2022-12-18T11:32:13.832Z,78.50
2022-12-18T11:33:13.856Z,78.71
2022-12-18T11:34:29.270Z,78.81
2022-12-18T11:35:14.840Z,78.81
2022-12-18T11:36:13.772Z,78.71
2022-12-18T11:37:14.480Z,78.81
2022-12-18T11:38:13.862Z,78.71
2022-12-18T11:39:14.010Z,78.92
2022-12-18T11:40:13.737Z,79.13
2022-12-18T11:41:13.728Z,79.34
2022-12-18T11:42:13.748Z,79.23
2022-12-18T11:43:13.709Z,79.55
2022-12-18T11:44:13.957Z,79.13
2022-12-18T11:45:13.678Z,79.13
2022-12-18T11:46:19.353Z,79.02
2022-12-18T11:47:14.768Z,79.23
2022-12-18T11:48:13.664Z,79.23
2022-12-18T11:49:13.646Z,79.23
2022-12-18T11:50:13.652Z,79.34
2022-12-18T11:51:13.684Z,78.92
2022-12-18T11:52:13.614Z,78.92
2022-12-18T11:53:13.590Z,79.02
2022-12-18T11:54:13.576Z,79.23
2022-12-18T11:55:13.588Z,79.44
2022-12-18T11:56:13.539Z,79.41
2022-12-18T11:57:13.560Z,79.23
2022-12-18T11:58:13.534Z,78.78
2022-12-18T11:59:13.542Z,78.29
2022-12-18T12:01:06.825Z,78.15
2022-12-18T12:02:06.839Z,77.76
2022-12-18T12:03:06.820Z,77.73
2022-12-18T12:04:06.848Z,77.94
2022-12-18T12:05:06.750Z,77.83
2022-12-18T12:06:06.716Z,78.05
2022-12-18T12:07:06.715Z,78.36
2022-12-18T12:08:06.675Z,78.57
2022-12-18T12:09:06.688Z,78.46
2022-12-18T12:10:06.656Z,78.25
2022-12-18T12:11:06.645Z,78.36
2022-12-18T12:12:06.623Z,78.39
2022-12-18T12:13:06.614Z,78.19
2022-12-18T12:14:06.605Z,78.29
2022-12-18T12:15:06.592Z,78.39
2022-12-18T12:16:06.609Z,78.39
2022-12-18T12:17:06.571Z,78.50
2022-12-18T12:18:11.139Z,78.60
2022-12-18T12:19:07.563Z,78.71
2022-12-18T12:20:06.514Z,78.81
2022-12-18T12:21:06.561Z,78.57
2022-12-18T12:22:06.530Z,78.88
2022-12-18T12:23:06.517Z,78.99
2022-12-18T12:24:06.484Z,78.99
2022-12-18T12:25:06.491Z,78.99
2022-12-18T12:26:06.466Z,79.20
2022-12-18T12:27:06.465Z,79.41
2022-12-18T12:28:06.441Z,78.99
2022-12-18T12:29:09.237Z,78.15
2022-12-18T12:30:06.419Z,77.87
2022-12-18T12:31:06.478Z,77.97
2022-12-18T12:32:06.431Z,78.25
2022-12-18T12:33:06.422Z,78.15
2022-12-18T12:34:06.376Z,77.83
2022-12-18T12:35:09.793Z,77.87
2022-12-18T12:36:06.323Z,77.87
2022-12-18T12:37:06.342Z,77.76
2022-12-18T12:38:06.314Z,77.97
2022-12-18T12:39:06.374Z,78.05
2022-12-18T12:40:20.825Z,78.19
2022-12-18T12:41:07.267Z,78.46
2022-12-18T12:42:06.278Z,78.67
2022-12-18T12:43:06.272Z,78.78
2022-12-18T12:44:06.254Z,78.57
2022-12-18T12:45:06.215Z,78.57
2022-12-18T12:46:07.428Z,78.50
2022-12-18T12:47:06.239Z,78.25
2022-12-18T12:48:06.174Z,78.46
2022-12-18T12:49:06.191Z,78.36
2022-12-18T12:50:06.172Z,78.29
2022-12-18T12:51:06.169Z,78.36
2022-12-18T12:52:06.160Z,78.36
2022-12-18T12:53:06.123Z,78.25
2022-12-18T12:54:06.123Z,78.19